sensor_id;sensor_type;location;lat;lon;timestamp;pressure;altitude;pressure_sealevel;temperature;humidity
41312;BME280;27061;41.648;24.568;2023-07-30T00:01:05;86023.91;;;18.46;52.02
41312;BME280;27061;41.648;24.568;2023-07-30T00:03:32;85994.50;;;18.26;52.24
41312;BME280;27061;41.648;24.568;2023-07-30T00:05:59;85972.03;;;18.09;52.44
41312;BME280;27061;41.648;24.568;2023-07-30T00:08:29;86014.50;;;18.35;52.10
41312;BME280;27061;41.648;24.568;2023-07-30T00:10:57;86052.41;;;18.71;52.22
41312;BME280;27061;41.648;24.568;2023-07-30T00:13:25;86051.72;;;18.71;51.83
41312;BME280;27061;41.648;24.568;2023-07-30T00:15:52;86010.13;;;18.40;51.90
41312;BME280;27061;41.648;24.568;2023-07-30T00:18:19;85992.41;;;18.26;51.52
41312;BME280;27061;41.648;24.568;2023-07-30T00:20:47;85966.19;;;18.15;51.13
41312;BME280;27061;41.648;24.568;2023-07-30T00:23:14;86025.13;;;18.51;51.49
41312;BME280;27061;41.648;24.568;2023-07-30T00:25:41;86047.13;;;18.63;51.89
41312;BME280;27061;41.648;24.568;2023-07-30T00:28:08;86045.91;;;18.58;52.04
41312;BME280;27061;41.648;24.568;2023-07-30T00:30:35;86050.97;;;18.53;52.44
41312;BME280;27061;41.648;24.568;2023-07-30T00:33:02;86005.22;;;18.21;52.10
41312;BME280;27061;41.648;24.568;2023-07-30T00:35:30;86017.63;;;18.26;52.34
41312;BME280;27061;41.648;24.568;2023-07-30T00:37:57;85984.44;;;17.96;52.44
41312;BME280;27061;41.648;24.568;2023-07-30T00:40:24;86050.34;;;18.51;51.93
41312;BME280;27061;41.648;24.568;2023-07-30T00:42:51;86046.94;;;18.48;52.00
41312;BME280;27061;41.648;24.568;2023-07-30T00:45:18;86020.34;;;18.28;51.71
41312;BME280;27061;41.648;24.568;2023-07-30T00:47:45;86043.75;;;18.40;52.37
41312;BME280;27061;41.648;24.568;2023-07-30T00:50:14;86059.03;;;18.24;52.98
41312;BME280;27061;41.648;24.568;2023-07-30T00:52:42;86039.72;;;18.16;52.88
41312;BME280;27061;41.648;24.568;2023-07-30T00:55:11;86002.28;;;17.86;53.39
41312;BME280;27061;41.648;24.568;2023-07-30T00:57:39;86048.94;;;18.12;53.54
41312;BME280;27061;41.648;24.568;2023-07-30T01:00:07;86015.84;;;17.98;52.53
41312;BME280;27061;41.648;24.568;2023-07-30T01:02:37;86040.03;;;18.08;53.12
41312;BME280;27061;41.648;24.568;2023-07-30T01:05:05;86042.94;;;17.85;54.04
41312;BME280;27061;41.648;24.568;2023-07-30T01:07:32;86024.88;;;17.80;53.79
41312;BME280;27061;41.648;24.568;2023-07-30T01:10:00;86028.84;;;17.87;53.44
41312;BME280;27061;41.648;24.568;2023-07-30T01:12:29;86049.31;;;18.02;53.32
41312;BME280;27061;41.648;24.568;2023-07-30T01:14:58;86048.63;;;18.02;53.48
41312;BME280;27061;41.648;24.568;2023-07-30T01:17:26;86041.00;;;18.00;53.30
41312;BME280;27061;41.648;24.568;2023-07-30T01:19:54;86049.47;;;17.98;53.25
41312;BME280;27061;41.648;24.568;2023-07-30T01:22:24;85990.63;;;17.59;53.19
41312;BME280;27061;41.648;24.568;2023-07-30T01:24:51;86038.09;;;18.02;53.30
41312;BME280;27061;41.648;24.568;2023-07-30T01:27:23;85986.53;;;17.55;53.26
41312;BME280;27061;41.648;24.568;2023-07-30T01:29:53;86008.53;;;17.68;53.62
41312;BME280;27061;41.648;24.568;2023-07-30T01:32:26;86005.13;;;17.65;53.35
41312;BME280;27061;41.648;24.568;2023-07-30T01:34:57;86022.19;;;17.78;54.05
41312;BME280;27061;41.648;24.568;2023-07-30T01:37:25;86034.28;;;17.91;53.64
41312;BME280;27061;41.648;24.568;2023-07-30T01:39:59;85989.97;;;17.58;53.75
41312;BME280;27061;41.648;24.568;2023-07-30T01:42:30;86035.88;;;17.86;54.18
41312;BME280;27061;41.648;24.568;2023-07-30T01:44:57;85970.66;;;17.29;54.38
41312;BME280;27061;41.648;24.568;2023-07-30T01:47:25;86044.59;;;17.78;54.49
41312;BME280;27061;41.648;24.568;2023-07-30T01:49:54;86004.22;;;17.50;54.28
41312;BME280;27061;41.648;24.568;2023-07-30T01:52:22;85998.84;;;17.44;54.30
41312;BME280;27061;41.648;24.568;2023-07-30T01:54:49;85994.88;;;17.37;54.32
41312;BME280;27061;41.648;24.568;2023-07-30T01:57:16;86036.94;;;17.76;54.13
41312;BME280;27061;41.648;24.568;2023-07-30T01:59:43;86033.97;;;17.60;54.64
41312;BME280;27061;41.648;24.568;2023-07-30T02:02:10;86031.44;;;17.51;55.05
41312;BME280;27061;41.648;24.568;2023-07-30T02:04:38;86008.25;;;17.34;54.61
41312;BME280;27061;41.648;24.568;2023-07-30T02:07:05;85987.44;;;17.29;54.68
41312;BME280;27061;41.648;24.568;2023-07-30T02:09:32;85983.44;;;17.24;54.69
41312;BME280;27061;41.648;24.568;2023-07-30T02:12:03;85985.94;;;17.11;55.90
41312;BME280;27061;41.648;24.568;2023-07-30T02:14:31;86013.09;;;17.36;55.86
41312;BME280;27061;41.648;24.568;2023-07-30T02:17:00;86030.63;;;17.55;55.02
41312;BME280;27061;41.648;24.568;2023-07-30T02:19:27;85976.75;;;17.15;54.85
41312;BME280;27061;41.648;24.568;2023-07-30T02:21:54;86030.03;;;17.52;54.82
41312;BME280;27061;41.648;24.568;2023-07-30T02:24:21;86026.19;;;17.41;55.09
41312;BME280;27061;41.648;24.568;2023-07-30T02:26:48;86028.88;;;17.45;55.68
41312;BME280;27061;41.648;24.568;2023-07-30T02:29:16;85985.47;;;17.05;55.52
41312;BME280;27061;41.648;24.568;2023-07-30T02:31:43;86000.50;;;17.16;55.38
41312;BME280;27061;41.648;24.568;2023-07-30T02:34:10;86037.28;;;17.45;55.35
41312;BME280;27061;41.648;24.568;2023-07-30T02:36:37;85988.44;;;16.99;56.12
41312;BME280;27061;41.648;24.568;2023-07-30T02:39:04;86020.31;;;17.29;55.62
41312;BME280;27061;41.648;24.568;2023-07-30T02:41:32;86036.25;;;17.34;55.71
41312;BME280;27061;41.648;24.568;2023-07-30T02:43:59;86036.31;;;17.32;56.22
41312;BME280;27061;41.648;24.568;2023-07-30T02:46:26;86006.88;;;17.12;56.03
41312;BME280;27061;41.648;24.568;2023-07-30T02:48:53;85989.25;;;16.95;56.35
41312;BME280;27061;41.648;24.568;2023-07-30T02:51:20;86033.16;;;17.42;55.52
41312;BME280;27061;41.648;24.568;2023-07-30T02:53:51;86035.69;;;17.50;55.41
41312;BME280;27061;41.648;24.568;2023-07-30T02:56:19;86044.50;;;17.38;55.45
41312;BME280;27061;41.648;24.568;2023-07-30T02:58:46;86033.09;;;17.24;56.61
41312;BME280;27061;41.648;24.568;2023-07-30T03:01:14;86017.66;;;17.04;56.34
41312;BME280;27061;41.648;24.568;2023-07-30T03:03:41;86014.13;;;17.05;56.47
41312;BME280;27061;41.648;24.568;2023-07-30T03:06:08;86047.78;;;17.24;56.81
41312;BME280;27061;41.648;24.568;2023-07-30T03:08:35;86034.31;;;17.08;56.99
41312;BME280;27061;41.648;24.568;2023-07-30T03:11:03;86018.59;;;16.96;56.85
41312;BME280;27061;41.648;24.568;2023-07-30T03:13:31;86059.16;;;17.18;56.85
41312;BME280;27061;41.648;24.568;2023-07-30T03:15:58;85998.94;;;16.77;56.97
41312;BME280;27061;41.648;24.568;2023-07-30T03:18:25;86032.78;;;16.90;57.20
41312;BME280;27061;41.648;24.568;2023-07-30T03:20:58;86018.25;;;16.86;57.04
41312;BME280;27061;41.648;24.568;2023-07-30T03:23:27;86047.81;;;16.78;58.23
41312;BME280;27061;41.648;24.568;2023-07-30T03:25:54;86026.84;;;16.79;57.71
41312;BME280;27061;41.648;24.568;2023-07-30T03:28:21;86047.19;;;16.99;57.55
41312;BME280;27061;41.648;24.568;2023-07-30T03:30:48;85984.66;;;16.42;57.69
41312;BME280;27061;41.648;24.568;2023-07-30T03:33:20;86055.94;;;16.87;58.50
41312;BME280;27061;41.648;24.568;2023-07-30T03:35:47;86009.97;;;16.59;57.81
41312;BME280;27061;41.648;24.568;2023-07-30T03:38:15;85991.38;;;16.51;57.71
41312;BME280;27061;41.648;24.568;2023-07-30T03:40:42;86020.31;;;16.64;58.17
41312;BME280;27061;41.648;24.568;2023-07-30T03:43:10;86055.41;;;16.82;58.10
41312;BME280;27061;41.648;24.568;2023-07-30T03:45:38;86041.59;;;16.76;58.13
41312;BME280;27061;41.648;24.568;2023-07-30T03:48:06;86006.41;;;16.62;58.00
41312;BME280;27061;41.648;24.568;2023-07-30T03:50:33;86041.97;;;16.87;57.79
41312;BME280;27061;41.648;24.568;2023-07-30T03:53:00;86005.03;;;16.61;57.93
41312;BME280;27061;41.648;24.568;2023-07-30T03:55:27;86036.59;;;16.80;58.92
41312;BME280;27061;41.648;24.568;2023-07-30T03:57:55;86014.03;;;16.64;59.32
41312;BME280;27061;41.648;24.568;2023-07-30T04:00:23;86018.72;;;16.71;58.89
41312;BME280;27061;41.648;24.568;2023-07-30T04:02:51;86065.91;;;17.04;59.34
41312;BME280;27061;41.648;24.568;2023-07-30T04:05:18;86060.22;;;17.06;58.73
41312;BME280;27061;41.648;24.568;2023-07-30T04:07:46;86028.94;;;16.79;59.70
41312;BME280;27061;41.648;24.568;2023-07-30T04:10:13;86060.91;;;17.07;59.95
41312;BME280;27061;41.648;24.568;2023-07-30T04:12:40;86060.78;;;17.11;59.97
41312;BME280;27061;41.648;24.568;2023-07-30T04:15:08;86068.16;;;17.20;59.46
41312;BME280;27061;41.648;24.568;2023-07-30T04:17:36;86070.16;;;17.24;60.11
41312;BME280;27061;41.648;24.568;2023-07-30T04:20:04;86070.16;;;17.24;60.38
41312;BME280;27061;41.648;24.568;2023-07-30T04:22:32;86052.06;;;17.21;60.61
41312;BME280;27061;41.648;24.568;2023-07-30T04:24:59;86017.91;;;16.96;60.28
41312;BME280;27061;41.648;24.568;2023-07-30T04:27:30;86071.38;;;17.29;61.21
41312;BME280;27061;41.648;24.568;2023-07-30T04:30:00;86069.06;;;17.36;61.54
41312;BME280;27061;41.648;24.568;2023-07-30T04:32:28;86064.00;;;17.40;61.33
41312;BME280;27061;41.648;24.568;2023-07-30T04:34:59;86054.59;;;17.29;61.49
41312;BME280;27061;41.648;24.568;2023-07-30T04:37:26;86025.16;;;17.09;61.26
41312;BME280;27061;41.648;24.568;2023-07-30T04:39:56;86076.09;;;17.55;61.24
41312;BME280;27061;41.648;24.568;2023-07-30T04:42:24;86050.84;;;17.37;61.31
41312;BME280;27061;41.648;24.568;2023-07-30T04:44:51;86063.66;;;17.50;60.64
41312;BME280;27061;41.648;24.568;2023-07-30T04:47:18;86027.22;;;17.32;60.60
41312;BME280;27061;41.648;24.568;2023-07-30T04:49:47;86027.63;;;17.40;60.99
41312;BME280;27061;41.648;24.568;2023-07-30T04:52:14;86057.69;;;17.63;61.32
41312;BME280;27061;41.648;24.568;2023-07-30T04:54:42;86057.41;;;17.71;62.43
41312;BME280;27061;41.648;24.568;2023-07-30T04:57:09;86015.06;;;17.39;62.88
41312;BME280;27061;41.648;24.568;2023-07-30T04:59:36;86063.00;;;17.91;61.94
41312;BME280;27061;41.648;24.568;2023-07-30T05:02:07;86022.59;;;17.66;60.47
41312;BME280;27061;41.648;24.568;2023-07-30T05:04:34;86073.09;;;18.03;59.95
41312;BME280;27061;41.648;24.568;2023-07-30T05:07:01;86083.03;;;18.19;60.48
41312;BME280;27061;41.648;24.568;2023-07-30T05:09:28;86015.34;;;17.73;59.97
41312;BME280;27061;41.648;24.568;2023-07-30T05:11:56;86072.28;;;18.25;60.21
41312;BME280;27061;41.648;24.568;2023-07-30T05:14:23;86025.41;;;18.05;60.38
41312;BME280;27061;41.648;24.568;2023-07-30T05:16:50;86049.19;;;18.25;61.16
41312;BME280;27061;41.648;24.568;2023-07-30T05:19:17;86080.84;;;18.61;60.75
41312;BME280;27061;41.648;24.568;2023-07-30T05:21:44;86084.78;;;18.68;61.71
41312;BME280;27061;41.648;24.568;2023-07-30T05:24:13;86062.59;;;18.62;62.77
41312;BME280;27061;41.648;24.568;2023-07-30T05:26:40;86065.63;;;18.75;63.22
41312;BME280;27061;41.648;24.568;2023-07-30T05:29:07;86040.06;;;18.64;62.48
41312;BME280;27061;41.648;24.568;2023-07-30T05:31:34;86058.69;;;18.90;62.37
41312;BME280;27061;41.648;24.568;2023-07-30T05:34:02;86065.91;;;19.21;61.87
41312;BME280;27061;41.648;24.568;2023-07-30T05:36:30;86046.69;;;19.11;61.41
41312;BME280;27061;41.648;24.568;2023-07-30T05:38:57;86090.09;;;19.49;61.70
41312;BME280;27061;41.648;24.568;2023-07-30T05:41:24;86003.69;;;18.97;61.61
41312;BME280;27061;41.648;24.568;2023-07-30T05:43:51;86060.47;;;19.52;60.81
41312;BME280;27061;41.648;24.568;2023-07-30T05:46:20;86066.97;;;19.65;60.25
41312;BME280;27061;41.648;24.568;2023-07-30T05:48:47;86087.56;;;19.93;60.18
41312;BME280;27061;41.648;24.568;2023-07-30T05:51:14;86085.00;;;20.04;61.09
41312;BME280;27061;41.648;24.568;2023-07-30T05:53:42;86088.59;;;20.19;60.74
41312;BME280;27061;41.648;24.568;2023-07-30T05:56:09;86094.53;;;20.28;60.49
41312;BME280;27061;41.648;24.568;2023-07-30T05:58:37;86004.66;;;19.78;59.83
41312;BME280;27061;41.648;24.568;2023-07-30T06:01:04;86092.66;;;20.56;59.97
41312;BME280;27061;41.648;24.568;2023-07-30T06:03:31;86078.34;;;20.62;59.25
41312;BME280;27061;41.648;24.568;2023-07-30T06:06:01;86046.41;;;20.53;59.00
41312;BME280;27061;41.648;24.568;2023-07-30T06:08:28;86025.44;;;20.50;57.56
41312;BME280;27061;41.648;24.568;2023-07-30T06:11:01;86058.13;;;20.89;57.35
41312;BME280;27061;41.648;24.568;2023-07-30T06:13:30;86078.09;;;21.14;57.42
41312;BME280;27061;41.648;24.568;2023-07-30T06:15:57;86051.09;;;21.04;56.88
41312;BME280;27061;41.648;24.568;2023-07-30T06:18:24;86040.22;;;21.11;56.40
41312;BME280;27061;41.648;24.568;2023-07-30T06:20:51;86057.63;;;21.30;55.78
41312;BME280;27061;41.648;24.568;2023-07-30T06:23:18;86057.66;;;21.45;54.44
41312;BME280;27061;41.648;24.568;2023-07-30T06:25:47;86043.75;;;21.41;55.79
41312;BME280;27061;41.648;24.568;2023-07-30T06:28:14;86093.13;;;21.99;54.64
41312;BME280;27061;41.648;24.568;2023-07-30T06:30:41;86086.22;;;22.10;52.91
41312;BME280;27061;41.648;24.568;2023-07-30T06:33:08;86087.94;;;22.18;51.83
41312;BME280;27061;41.648;24.568;2023-07-30T06:35:35;86084.31;;;22.34;52.28
41312;BME280;27061;41.648;24.568;2023-07-30T06:38:02;86047.69;;;22.19;51.31
41312;BME280;27061;41.648;24.568;2023-07-30T06:40:29;86003.59;;;21.99;50.47
41312;BME280;27061;41.648;24.568;2023-07-30T06:42:57;86029.56;;;22.29;51.36
41312;BME280;27061;41.648;24.568;2023-07-30T06:45:24;85918.97;;;21.59;50.63
41312;BME280;27061;41.648;24.568;2023-07-30T06:47:51;86087.88;;;23.02;47.36
41312;BME280;27061;41.648;24.568;2023-07-30T06:50:18;86076.06;;;23.12;46.92
41312;BME280;27061;41.648;24.568;2023-07-30T06:52:46;86052.25;;;23.09;47.52
41312;BME280;27061;41.648;24.568;2023-07-30T06:55:13;86074.31;;;23.45;47.19
41312;BME280;27061;41.648;24.568;2023-07-30T06:57:40;85995.84;;;22.94;46.78
41312;BME280;27061;41.648;24.568;2023-07-30T07:00:07;86045.38;;;23.44;46.17
41312;BME280;27061;41.648;24.568;2023-07-30T07:02:35;86068.25;;;23.78;46.55
41312;BME280;27061;41.648;24.568;2023-07-30T07:05:03;86024.97;;;23.56;45.26
41312;BME280;27061;41.648;24.568;2023-07-30T07:07:30;86073.00;;;23.94;42.53
41312;BME280;27061;41.648;24.568;2023-07-30T07:09:57;86027.44;;;23.75;44.03
41312;BME280;27061;41.648;24.568;2023-07-30T07:12:24;86064.59;;;24.18;44.23
41312;BME280;27061;41.648;24.568;2023-07-30T07:14:51;86067.13;;;24.24;43.21
41312;BME280;27061;41.648;24.568;2023-07-30T07:17:18;86062.34;;;24.33;40.52
41312;BME280;27061;41.648;24.568;2023-07-30T07:19:45;86065.19;;;24.33;41.08
41312;BME280;27061;41.648;24.568;2023-07-30T07:22:13;86060.72;;;24.49;41.98
41312;BME280;27061;41.648;24.568;2023-07-30T07:24:40;86057.97;;;24.59;42.69
41312;BME280;27061;41.648;24.568;2023-07-30T07:27:07;86050.97;;;24.58;40.64
41312;BME280;27061;41.648;24.568;2023-07-30T07:29:34;86036.94;;;24.56;37.94
41312;BME280;27061;41.648;24.568;2023-07-30T07:32:01;86061.03;;;24.91;37.37
41312;BME280;27061;41.648;24.568;2023-07-30T07:34:28;86062.59;;;25.01;38.43
41312;BME280;27061;41.648;24.568;2023-07-30T07:36:55;86035.75;;;24.76;38.93
41312;BME280;27061;41.648;24.568;2023-07-30T07:39:23;86036.59;;;24.98;39.95
41312;BME280;27061;41.648;24.568;2023-07-30T07:41:50;86062.50;;;25.26;40.45
41312;BME280;27061;41.648;24.568;2023-07-30T07:44:17;86026.53;;;25.12;40.83
41312;BME280;27061;41.648;24.568;2023-07-30T07:46:44;86068.03;;;25.51;40.58
41312;BME280;27061;41.648;24.568;2023-07-30T07:49:11;86058.25;;;25.61;39.68
41312;BME280;27061;41.648;24.568;2023-07-30T07:51:38;86064.25;;;25.78;40.15
41312;BME280;27061;41.648;24.568;2023-07-30T07:54:06;86051.47;;;25.90;39.43
41312;BME280;27061;41.648;24.568;2023-07-30T07:56:33;86063.63;;;25.99;36.07
41312;BME280;27061;41.648;24.568;2023-07-30T07:59:00;86070.81;;;26.09;37.69
41312;BME280;27061;41.648;24.568;2023-07-30T08:01:27;86064.59;;;26.06;34.95
41312;BME280;27061;41.648;24.568;2023-07-30T08:03:55;86054.47;;;26.09;34.57
41312;BME280;27061;41.648;24.568;2023-07-30T08:06:22;86054.75;;;26.05;35.21
41312;BME280;27061;41.648;24.568;2023-07-30T08:08:49;86039.47;;;26.00;37.26
41312;BME280;27061;41.648;24.568;2023-07-30T08:11:16;86067.19;;;26.10;34.83
41312;BME280;27061;41.648;24.568;2023-07-30T08:13:43;86036.03;;;25.87;35.39
41312;BME280;27061;41.648;24.568;2023-07-30T08:16:10;86034.03;;;25.96;35.27
41312;BME280;27061;41.648;24.568;2023-07-30T08:18:37;86056.72;;;25.96;35.51
41312;BME280;27061;41.648;24.568;2023-07-30T08:21:04;86037.25;;;25.79;36.75
41312;BME280;27061;41.648;24.568;2023-07-30T08:23:32;86057.13;;;25.90;37.10
41312;BME280;27061;41.648;24.568;2023-07-30T08:25:59;86045.31;;;25.75;37.15
41312;BME280;27061;41.648;24.568;2023-07-30T08:28:26;86049.28;;;25.80;37.57
41312;BME280;27061;41.648;24.568;2023-07-30T08:30:59;86045.34;;;25.85;38.30
41312;BME280;27061;41.648;24.568;2023-07-30T08:33:27;86014.81;;;25.75;38.04
41312;BME280;27061;41.648;24.568;2023-07-30T08:35:55;86026.63;;;26.01;38.73
41312;BME280;27061;41.648;24.568;2023-07-30T08:38:23;86046.41;;;26.24;38.67
41312;BME280;27061;41.648;24.568;2023-07-30T08:40:51;86047.50;;;26.30;38.65
41312;BME280;27061;41.648;24.568;2023-07-30T08:43:18;86022.22;;;26.15;38.30
41312;BME280;27061;41.648;24.568;2023-07-30T08:45:46;86050.38;;;26.40;38.16
41312;BME280;27061;41.648;24.568;2023-07-30T08:48:13;86042.16;;;26.47;38.12
41312;BME280;27061;41.648;24.568;2023-07-30T08:50:41;86045.00;;;26.57;38.30
41312;BME280;27061;41.648;24.568;2023-07-30T08:53:10;86017.66;;;26.41;37.94
41312;BME280;27061;41.648;24.568;2023-07-30T08:55:38;86007.94;;;26.38;38.38
41312;BME280;27061;41.648;24.568;2023-07-30T08:58:07;86023.34;;;26.52;38.30
41312;BME280;27061;41.648;24.568;2023-07-30T09:00:36;86034.31;;;26.79;37.97
41312;BME280;27061;41.648;24.568;2023-07-30T09:03:06;86030.00;;;26.80;37.77
41312;BME280;27061;41.648;24.568;2023-07-30T09:05:33;85981.72;;;26.48;38.04
41312;BME280;27061;41.648;24.568;2023-07-30T09:08:01;86016.19;;;26.74;35.98
41312;BME280;27061;41.648;24.568;2023-07-30T09:10:28;85987.91;;;26.72;37.91
41312;BME280;27061;41.648;24.568;2023-07-30T09:12:57;85989.94;;;26.84;36.29
41312;BME280;27061;41.648;24.568;2023-07-30T09:15:37;85979.41;;;26.51;35.69
41312;BME280;27061;41.648;24.568;2023-07-30T09:18:06;86015.94;;;27.00;36.47
41312;BME280;27061;41.648;24.568;2023-07-30T09:20:39;86002.22;;;27.13;37.19
41312;BME280;27061;41.648;24.568;2023-07-30T09:23:06;85982.47;;;27.21;38.23
41312;BME280;27061;41.648;24.568;2023-07-30T09:25:35;86009.31;;;27.54;37.57
41312;BME280;27061;41.648;24.568;2023-07-30T09:28:02;86007.22;;;27.74;38.17
41312;BME280;27061;41.648;24.568;2023-07-30T09:30:29;86005.38;;;27.90;33.87
41312;BME280;27061;41.648;24.568;2023-07-30T09:32:57;85996.41;;;27.96;36.47
41312;BME280;27061;41.648;24.568;2023-07-30T09:35:25;85986.84;;;28.10;34.77
41312;BME280;27061;41.648;24.568;2023-07-30T09:38:00;85994.16;;;28.37;nan
41312;BME280;27061;41.648;24.568;2023-07-30T09:40:34;85999.47;;;28.52;35.59
41312;BME280;27061;41.648;24.568;2023-07-30T09:43:05;85993.97;;;28.50;33.91
41312;BME280;27061;41.648;24.568;2023-07-30T09:45:35;85969.47;;;28.14;32.06
41312;BME280;27061;41.648;24.568;2023-07-30T09:48:05;85989.59;;;28.51;31.41
41312;BME280;27061;41.648;24.568;2023-07-30T09:50:36;85964.34;;;28.55;32.14
41312;BME280;27061;41.648;24.568;2023-07-30T09:53:04;85922.47;;;28.34;34.65
41312;BME280;27061;41.648;24.568;2023-07-30T09:55:32;85974.84;;;28.87;34.06
41312;BME280;27061;41.648;24.568;2023-07-30T09:57:59;85927.53;;;28.62;34.52
41312;BME280;27061;41.648;24.568;2023-07-30T10:00:29;85984.28;;;29.22;34.23
41312;BME280;27061;41.648;24.568;2023-07-30T10:02:58;85976.75;;;29.27;33.04
41312;BME280;27061;41.648;24.568;2023-07-30T10:05:29;85970.00;;;29.41;30.92
41312;BME280;27061;41.648;24.568;2023-07-30T10:08:06;85975.94;;;29.56;31.10
41312;BME280;27061;41.648;24.568;2023-07-30T10:10:36;85928.00;;;29.31;33.25
41312;BME280;27061;41.648;24.568;2023-07-30T10:13:08;85919.78;;;29.35;31.66
41312;BME280;27061;41.648;24.568;2023-07-30T10:15:40;85910.41;;;29.37;31.32
41312;BME280;27061;41.648;24.568;2023-07-30T10:18:07;85922.94;;;29.59;32.40
41312;BME280;27061;41.648;24.568;2023-07-30T10:20:35;85923.59;;;29.60;30.11
41312;BME280;27061;41.648;24.568;2023-07-30T10:23:04;85962.03;;;29.97;30.24
41312;BME280;27061;41.648;24.568;2023-07-30T10:25:48;85960.22;;;30.11;30.68
41312;BME280;27061;41.648;24.568;2023-07-30T10:28:31;85965.78;;;30.21;30.47
41312;BME280;27061;41.648;24.568;2023-07-30T10:31:01;85964.28;;;30.31;30.46
41312;BME280;27061;41.648;24.568;2023-07-30T10:33:49;85935.72;;;30.14;30.16
41312;BME280;27061;41.648;24.568;2023-07-30T10:36:51;85962.50;;;30.53;31.33
41312;BME280;27061;41.648;24.568;2023-07-30T10:39:20;85929.84;;;30.33;27.92
41312;BME280;27061;41.648;24.568;2023-07-30T10:41:50;85969.91;;;30.59;30.10
41312;BME280;27061;41.648;24.568;2023-07-30T10:44:24;85943.47;;;30.41;32.28
41312;BME280;27061;41.648;24.568;2023-07-30T10:46:56;85972.94;;;30.66;31.32
41312;BME280;27061;41.648;24.568;2023-07-30T10:49:23;85968.91;;;30.80;31.53
41312;BME280;27061;41.648;24.568;2023-07-30T10:51:55;85968.59;;;30.92;31.01
41312;BME280;27061;41.648;24.568;2023-07-30T10:54:33;85973.25;;;31.05;31.62
41312;BME280;27061;41.648;24.568;2023-07-30T10:57:03;85952.78;;;31.19;31.64
41312;BME280;27061;41.648;24.568;2023-07-30T10:59:35;85963.03;;;31.34;31.19
41312;BME280;27061;41.648;24.568;2023-07-30T11:02:06;85962.50;;;31.31;30.39
41312;BME280;27061;41.648;24.568;2023-07-30T11:04:43;85962.38;;;31.24;29.61
41312;BME280;27061;41.648;24.568;2023-07-30T11:07:16;85915.44;;;30.96;30.24
41312;BME280;27061;41.648;24.568;2023-07-30T11:09:44;85888.88;;;30.45;28.05
41312;BME280;27061;41.648;24.568;2023-07-30T11:12:14;85964.22;;;31.02;29.35
41312;BME280;27061;41.648;24.568;2023-07-30T11:14:44;85947.06;;;31.02;30.76
41312;BME280;27061;41.648;24.568;2023-07-30T11:17:17;85959.84;;;31.12;30.76
41312;BME280;27061;41.648;24.568;2023-07-30T11:19:45;85928.56;;;30.67;29.91
41312;BME280;27061;41.648;24.568;2023-07-30T11:22:12;85956.47;;;30.83;30.78
41312;BME280;27061;41.648;24.568;2023-07-30T11:24:39;85919.47;;;30.47;32.35
41312;BME280;27061;41.648;24.568;2023-07-30T11:27:06;85960.66;;;30.76;32.03
41312;BME280;27061;41.648;24.568;2023-07-30T11:29:34;85916.94;;;30.43;32.93
41312;BME280;27061;41.648;24.568;2023-07-30T11:32:02;85937.31;;;30.82;33.88
41312;BME280;27061;41.648;24.568;2023-07-30T11:34:31;85943.00;;;30.65;32.87
41312;BME280;27061;41.648;24.568;2023-07-30T11:37:03;85933.97;;;30.71;33.08
41312;BME280;27061;41.648;24.568;2023-07-30T11:39:30;85940.31;;;30.63;33.67
41312;BME280;27061;41.648;24.568;2023-07-30T11:41:58;85942.31;;;30.47;33.98
41312;BME280;27061;41.648;24.568;2023-07-30T11:44:33;85934.56;;;30.45;34.24
41312;BME280;27061;41.648;24.568;2023-07-30T11:47:01;85928.19;;;30.36;33.54
41312;BME280;27061;41.648;24.568;2023-07-30T11:49:30;85944.16;;;30.42;32.92
41312;BME280;27061;41.648;24.568;2023-07-30T11:52:08;85903.22;;;29.92;33.34
41312;BME280;27061;41.648;24.568;2023-07-30T11:54:36;85936.22;;;30.16;33.78
41312;BME280;27061;41.648;24.568;2023-07-30T11:57:04;85934.03;;;30.08;34.48
41312;BME280;27061;41.648;24.568;2023-07-30T11:59:32;85919.66;;;29.82;33.72
41312;BME280;27061;41.648;24.568;2023-07-30T12:01:59;85886.66;;;29.49;33.89
41312;BME280;27061;41.648;24.568;2023-07-30T12:04:31;85928.41;;;29.89;34.22
41312;BME280;27061;41.648;24.568;2023-07-30T12:06:58;85927.41;;;29.93;34.25
41312;BME280;27061;41.648;24.568;2023-07-30T12:09:26;85922.34;;;29.84;34.72
41312;BME280;27061;41.648;24.568;2023-07-30T12:11:55;85917.97;;;29.77;34.13
41312;BME280;27061;41.648;24.568;2023-07-30T12:14:25;85915.28;;;29.75;33.90
41312;BME280;27061;41.648;24.568;2023-07-30T12:17:00;85871.19;;;29.46;35.22
41312;BME280;27061;41.648;24.568;2023-07-30T12:19:27;85919.94;;;29.70;34.78
41312;BME280;27061;41.648;24.568;2023-07-30T12:21:54;85914.72;;;29.55;34.65
41312;BME280;27061;41.648;24.568;2023-07-30T12:24:22;85905.63;;;29.53;35.69
41312;BME280;27061;41.648;24.568;2023-07-30T12:26:49;85887.75;;;29.35;34.68
41312;BME280;27061;41.648;24.568;2023-07-30T12:29:19;85866.31;;;28.99;35.29
41312;BME280;27061;41.648;24.568;2023-07-30T12:31:46;85918.72;;;29.22;34.94
41312;BME280;27061;41.648;24.568;2023-07-30T12:34:15;85912.31;;;29.12;35.26
41312;BME280;27061;41.648;24.568;2023-07-30T12:36:42;85875.31;;;28.93;35.26
41312;BME280;27061;41.648;24.568;2023-07-30T12:39:09;85901.97;;;29.26;35.29
41312;BME280;27061;41.648;24.568;2023-07-30T12:41:36;85897.88;;;29.14;35.46
41312;BME280;27061;41.648;24.568;2023-07-30T12:44:04;85893.81;;;29.03;35.94
41312;BME280;27061;41.648;24.568;2023-07-30T12:46:32;85884.63;;;28.83;35.56
41312;BME280;27061;41.648;24.568;2023-07-30T12:49:00;85887.34;;;28.66;35.92
41312;BME280;27061;41.648;24.568;2023-07-30T12:51:32;85871.53;;;28.50;36.50
41312;BME280;27061;41.648;24.568;2023-07-30T12:53:59;85912.81;;;28.87;36.67
41312;BME280;27061;41.648;24.568;2023-07-30T12:56:27;85906.53;;;28.76;36.73